sensor_id;sensor_type;location;lat;lon;timestamp;P1;durP1;ratioP1;P2;durP2;ratioP2
33206;SDS011;19565;46.602;11.534;2024-02-16T00:02:17;13.83;;;13.13;;
33206;SDS011;19565;46.602;11.534;2024-02-16T00:04:45;14.83;;;13.93;;
33206;SDS011;19565;46.602;11.534;2024-02-16T00:07:13;13.97;;;13.27;;
33206;SDS011;19565;46.602;11.534;2024-02-16T00:09:42;15.67;;;14.57;;
33206;SDS011;19565;46.602;11.534;2024-02-16T00:12:12;4.80;;;4.50;;
33206;SDS011;19565;46.602;11.534;2024-02-16T00:14:42;5.00;;;4.70;;
33206;SDS011;19565;46.602;11.534;2024-02-16T00:17:14;5.00;;;4.70;;
33206;SDS011;19565;46.602;11.534;2024-02-16T00:19:42;7.90;;;5.33;;
33206;SDS011;19565;46.602;11.534;2024-02-16T00:22:10;5.90;;;5.60;;
33206;SDS011;19565;46.602;11.534;2024-02-16T00:24:39;4.90;;;4.60;;
33206;SDS011;19565;46.602;11.534;2024-02-16T00:27:07;5.13;;;4.83;;
33206;SDS011;19565;46.602;11.534;2024-02-16T00:29:36;5.20;;;4.90;;
33206;SDS011;19565;46.602;11.534;2024-02-16T00:32:04;5.10;;;4.80;;
33206;SDS011;19565;46.602;11.534;2024-02-16T00:34:35;4.40;;;4.10;;
33206;SDS011;19565;46.602;11.534;2024-02-16T00:37:05;5.87;;;5.40;;
33206;SDS011;19565;46.602;11.534;2024-02-16T00:39:36;4.73;;;4.43;;
33206;SDS011;19565;46.602;11.534;2024-02-16T00:42:05;4.73;;;4.33;;
33206;SDS011;19565;46.602;11.534;2024-02-16T00:44:34;3.93;;;3.73;;
33206;SDS011;19565;46.602;11.534;2024-02-16T00:47:02;3.87;;;3.67;;
33206;SDS011;19565;46.602;11.534;2024-02-16T00:49:32;4.03;;;3.80;;
33206;SDS011;19565;46.602;11.534;2024-02-16T00:52:02;4.10;;;3.70;;
33206;SDS011;19565;46.602;11.534;2024-02-16T00:54:31;3.90;;;3.70;;
33206;SDS011;19565;46.602;11.534;2024-02-16T00:56:59;3.63;;;3.43;;
33206;SDS011;19565;46.602;11.534;2024-02-16T00:59:29;4.60;;;4.30;;
33206;SDS011;19565;46.602;11.534;2024-02-16T01:01:58;3.70;;;3.50;;
33206;SDS011;19565;46.602;11.534;2024-02-16T01:04:26;3.90;;;3.70;;
33206;SDS011;19565;46.602;11.534;2024-02-16T01:06:54;3.90;;;3.70;;
33206;SDS011;19565;46.602;11.534;2024-02-16T01:09:24;3.70;;;3.50;;
33206;SDS011;19565;46.602;11.534;2024-02-16T01:11:53;3.80;;;3.60;;
33206;SDS011;19565;46.602;11.534;2024-02-16T01:14:21;4.27;;;4.07;;
33206;SDS011;19565;46.602;11.534;2024-02-16T01:16:50;4.27;;;4.07;;
33206;SDS011;19565;46.602;11.534;2024-02-16T01:19:18;4.87;;;4.33;;
33206;SDS011;19565;46.602;11.534;2024-02-16T01:21:46;5.07;;;4.77;;
33206;SDS011;19565;46.602;11.534;2024-02-16T01:24:18;3.80;;;3.60;;
33206;SDS011;19565;46.602;11.534;2024-02-16T01:26:49;4.13;;;3.93;;
33206;SDS011;19565;46.602;11.534;2024-02-16T01:29:17;3.50;;;3.30;;
33206;SDS011;19565;46.602;11.534;2024-02-16T01:31:45;3.40;;;3.20;;
33206;SDS011;19565;46.602;11.534;2024-02-16T01:34:13;3.73;;;3.53;;
33206;SDS011;19565;46.602;11.534;2024-02-16T01:36:42;10.73;;;10.00;;
33206;SDS011;19565;46.602;11.534;2024-02-16T01:39:10;10.33;;;9.73;;
33206;SDS011;19565;46.602;11.534;2024-02-16T01:41:38;11.00;;;10.40;;
33206;SDS011;19565;46.602;11.534;2024-02-16T01:44:08;10.90;;;10.30;;
33206;SDS011;19565;46.602;11.534;2024-02-16T01:46:36;11.00;;;10.40;;
33206;SDS011;19565;46.602;11.534;2024-02-16T01:49:04;11.13;;;10.53;;
33206;SDS011;19565;46.602;11.534;2024-02-16T01:51:34;11.53;;;10.83;;
33206;SDS011;19565;46.602;11.534;2024-02-16T01:54:03;10.53;;;9.93;;
33206;SDS011;19565;46.602;11.534;2024-02-16T01:56:31;10.23;;;9.63;;
33206;SDS011;19565;46.602;11.534;2024-02-16T01:59:00;3.23;;;3.03;;
33206;SDS011;19565;46.602;11.534;2024-02-16T02:01:30;3.63;;;3.43;;
33206;SDS011;19565;46.602;11.534;2024-02-16T02:03:58;3.57;;;3.30;;
33206;SDS011;19565;46.602;11.534;2024-02-16T02:06:26;3.20;;;3.00;;
33206;SDS011;19565;46.602;11.534;2024-02-16T02:08:55;2.70;;;2.60;;
33206;SDS011;19565;46.602;11.534;2024-02-16T02:11:23;3.17;;;2.97;;
33206;SDS011;19565;46.602;11.534;2024-02-16T02:13:51;2.70;;;2.60;;
33206;SDS011;19565;46.602;11.534;2024-02-16T02:16:19;3.10;;;2.90;;
33206;SDS011;19565;46.602;11.534;2024-02-16T02:18:50;2.83;;;2.73;;
33206;SDS011;19565;46.602;11.534;2024-02-16T02:21:19;3.53;;;3.33;;
33206;SDS011;19565;46.602;11.534;2024-02-16T02:23:48;2.77;;;2.67;;
33206;SDS011;19565;46.602;11.534;2024-02-16T02:26:16;3.30;;;3.10;;
33206;SDS011;19565;46.602;11.534;2024-02-16T02:28:45;2.87;;;2.77;;
33206;SDS011;19565;46.602;11.534;2024-02-16T02:31:13;3.33;;;3.13;;
33206;SDS011;19565;46.602;11.534;2024-02-16T02:33:41;3.50;;;3.30;;
33206;SDS011;19565;46.602;11.534;2024-02-16T02:36:10;3.77;;;3.57;;
33206;SDS011;19565;46.602;11.534;2024-02-16T02:38:38;4.87;;;3.47;;
33206;SDS011;19565;46.602;11.534;2024-02-16T02:41:07;3.30;;;3.10;;
33206;SDS011;19565;46.602;11.534;2024-02-16T02:43:36;3.33;;;3.13;;
33206;SDS011;19565;46.602;11.534;2024-02-16T02:46:04;3.67;;;3.37;;
33206;SDS011;19565;46.602;11.534;2024-02-16T02:48:32;2.97;;;2.77;;
33206;SDS011;19565;46.602;11.534;2024-02-16T02:51:01;3.27;;;3.07;;
33206;SDS011;19565;46.602;11.534;2024-02-16T02:53:30;2.70;;;2.60;;
33206;SDS011;19565;46.602;11.534;2024-02-16T02:55:58;2.90;;;2.77;;
33206;SDS011;19565;46.602;11.534;2024-02-16T02:58:27;7.67;;;7.23;;
33206;SDS011;19565;46.602;11.534;2024-02-16T03:00:55;8.10;;;7.60;;
33206;SDS011;19565;46.602;11.534;2024-02-16T03:03:24;9.10;;;8.50;;
33206;SDS011;19565;46.602;11.534;2024-02-16T03:05:52;8.33;;;7.83;;
33206;SDS011;19565;46.602;11.534;2024-02-16T03:08:20;9.37;;;8.83;;
33206;SDS011;19565;46.602;11.534;2024-02-16T03:10:48;2.93;;;2.80;;
33206;SDS011;19565;46.602;11.534;2024-02-16T03:13:16;7.57;;;7.17;;
33206;SDS011;19565;46.602;11.534;2024-02-16T03:15:46;6.73;;;6.33;;
33206;SDS011;19565;46.602;11.534;2024-02-16T03:18:14;6.70;;;6.30;;
33206;SDS011;19565;46.602;11.534;2024-02-16T03:20:43;6.40;;;6.00;;
33206;SDS011;19565;46.602;11.534;2024-02-16T03:23:12;7.10;;;6.70;;
33206;SDS011;19565;46.602;11.534;2024-02-16T03:25:41;6.30;;;5.90;;
33206;SDS011;19565;46.602;11.534;2024-02-16T03:28:11;1.63;;;1.60;;
33206;SDS011;19565;46.602;11.534;2024-02-16T03:30:40;1.83;;;1.73;;
33206;SDS011;19565;46.602;11.534;2024-02-16T03:33:09;3.00;;;1.93;;
33206;SDS011;19565;46.602;11.534;2024-02-16T03:35:39;2.60;;;2.50;;
33206;SDS011;19565;46.602;11.534;2024-02-16T03:38:07;5.00;;;4.70;;
33206;SDS011;19565;46.602;11.534;2024-02-16T03:40:35;5.07;;;4.77;;
33206;SDS011;19565;46.602;11.534;2024-02-16T03:43:03;8.70;;;6.13;;
33206;SDS011;19565;46.602;11.534;2024-02-16T03:45:32;5.30;;;4.90;;
33206;SDS011;19565;46.602;11.534;2024-02-16T03:48:00;4.13;;;3.93;;
33206;SDS011;19565;46.602;11.534;2024-02-16T03:50:29;4.57;;;4.27;;
33206;SDS011;19565;46.602;11.534;2024-02-16T03:52:58;4.63;;;4.33;;
33206;SDS011;19565;46.602;11.534;2024-02-16T03:55:26;5.27;;;4.97;;
33206;SDS011;19565;46.602;11.534;2024-02-16T03:57:54;4.50;;;4.30;;
33206;SDS011;19565;46.602;11.534;2024-02-16T04:00:23;4.33;;;4.13;;
33206;SDS011;19565;46.602;11.534;2024-02-16T04:02:51;11.80;;;4.80;;
33206;SDS011;19565;46.602;11.534;2024-02-16T04:05:19;4.47;;;4.27;;
33206;SDS011;19565;46.602;11.534;2024-02-16T04:07:48;4.03;;;3.83;;
33206;SDS011;19565;46.602;11.534;2024-02-16T04:10:17;4.80;;;4.50;;
33206;SDS011;19565;46.602;11.534;2024-02-16T04:12:45;4.87;;;4.57;;
33206;SDS011;19565;46.602;11.534;2024-02-16T04:15:13;4.47;;;4.27;;
33206;SDS011;19565;46.602;11.534;2024-02-16T04:17:41;4.90;;;4.60;;
33206;SDS011;19565;46.602;11.534;2024-02-16T04:20:10;4.50;;;4.30;;
33206;SDS011;19565;46.602;11.534;2024-02-16T04:22:38;4.70;;;4.40;;
33206;SDS011;19565;46.602;11.534;2024-02-16T04:25:08;4.70;;;4.40;;
33206;SDS011;19565;46.602;11.534;2024-02-16T04:27:36;4.40;;;4.17;;
33206;SDS011;19565;46.602;11.534;2024-02-16T04:30:05;5.73;;;5.30;;
33206;SDS011;19565;46.602;11.534;2024-02-16T04:32:35;4.50;;;4.30;;
33206;SDS011;19565;46.602;11.534;2024-02-16T04:35:03;5.33;;;4.97;;
33206;SDS011;19565;46.602;11.534;2024-02-16T04:37:32;4.57;;;4.30;;
33206;SDS011;19565;46.602;11.534;2024-02-16T04:40:00;5.93;;;5.53;;
33206;SDS011;19565;46.602;11.534;2024-02-16T04:42:30;1.00;;;1.00;;
33206;SDS011;19565;46.602;11.534;2024-02-16T04:44:58;1.73;;;1.63;;
33206;SDS011;19565;46.602;11.534;2024-02-16T04:47:31;1.73;;;1.63;;
33206;SDS011;19565;46.602;11.534;2024-02-16T04:49:59;1.67;;;1.57;;
33206;SDS011;19565;46.602;11.534;2024-02-16T04:52:28;1.20;;;1.20;;
33206;SDS011;19565;46.602;11.534;2024-02-16T04:54:56;1.70;;;1.60;;
33206;SDS011;19565;46.602;11.534;2024-02-16T04:57:25;1.97;;;1.87;;
33206;SDS011;19565;46.602;11.534;2024-02-16T04:59:54;2.07;;;1.93;;
33206;SDS011;19565;46.602;11.534;2024-02-16T05:02:22;1.83;;;1.73;;
33206;SDS011;19565;46.602;11.534;2024-02-16T05:04:50;1.40;;;1.33;;
33206;SDS011;19565;46.602;11.534;2024-02-16T05:07:19;1.30;;;1.30;;
33206;SDS011;19565;46.602;11.534;2024-02-16T05:09:47;1.70;;;1.60;;
33206;SDS011;19565;46.602;11.534;2024-02-16T05:12:16;1.17;;;1.17;;
33206;SDS011;19565;46.602;11.534;2024-02-16T05:14:47;1.40;;;1.40;;
33206;SDS011;19565;46.602;11.534;2024-02-16T05:17:17;2.03;;;1.93;;
33206;SDS011;19565;46.602;11.534;2024-02-16T05:19:46;2.33;;;2.20;;
33206;SDS011;19565;46.602;11.534;2024-02-16T05:22:15;1.20;;;1.20;;
33206;SDS011;19565;46.602;11.534;2024-02-16T05:24:44;1.40;;;1.40;;
33206;SDS011;19565;46.602;11.534;2024-02-16T05:27:13;2.23;;;2.03;;
33206;SDS011;19565;46.602;11.534;2024-02-16T05:29:42;1.30;;;1.27;;
33206;SDS011;19565;46.602;11.534;2024-02-16T05:32:10;1.13;;;1.13;;
33206;SDS011;19565;46.602;11.534;2024-02-16T05:34:40;2.10;;;1.87;;
33206;SDS011;19565;46.602;11.534;2024-02-16T05:37:09;2.23;;;1.63;;
33206;SDS011;19565;46.602;11.534;2024-02-16T05:39:37;1.20;;;1.17;;
33206;SDS011;19565;46.602;11.534;2024-02-16T05:42:20;1.20;;;1.20;;
33206;SDS011;19565;46.602;11.534;2024-02-16T05:44:49;1.10;;;1.10;;
33206;SDS011;19565;46.602;11.534;2024-02-16T05:47:18;2.60;;;2.47;;
33206;SDS011;19565;46.602;11.534;2024-02-16T05:49:48;4.03;;;3.83;;
33206;SDS011;19565;46.602;11.534;2024-02-16T05:52:17;3.60;;;3.40;;
33206;SDS011;19565;46.602;11.534;2024-02-16T05:54:45;4.10;;;3.90;;
33206;SDS011;19565;46.602;11.534;2024-02-16T05:57:16;7.90;;;4.70;;
33206;SDS011;19565;46.602;11.534;2024-02-16T05:59:45;6.30;;;4.20;;
33206;SDS011;19565;46.602;11.534;2024-02-16T06:02:16;6.33;;;5.93;;
33206;SDS011;19565;46.602;11.534;2024-02-16T06:04:44;6.40;;;6.00;;
33206;SDS011;19565;46.602;11.534;2024-02-16T06:07:14;5.27;;;4.83;;
33206;SDS011;19565;46.602;11.534;2024-02-16T06:09:43;5.80;;;5.50;;
33206;SDS011;19565;46.602;11.534;2024-02-16T06:12:11;9.63;;;9.03;;
33206;SDS011;19565;46.602;11.534;2024-02-16T06:14:42;5.60;;;5.30;;
33206;SDS011;19565;46.602;11.534;2024-02-16T06:17:10;6.20;;;5.80;;
33206;SDS011;19565;46.602;11.534;2024-02-16T06:19:41;6.47;;;6.07;;
33206;SDS011;19565;46.602;11.534;2024-02-16T06:22:09;6.53;;;6.13;;
33206;SDS011;19565;46.602;11.534;2024-02-16T06:24:39;6.17;;;5.77;;
33206;SDS011;19565;46.602;11.534;2024-02-16T06:27:08;6.70;;;6.30;;
33206;SDS011;19565;46.602;11.534;2024-02-16T06:29:36;6.67;;;6.17;;
33206;SDS011;19565;46.602;11.534;2024-02-16T06:32:04;5.57;;;5.27;;
33206;SDS011;19565;46.602;11.534;2024-02-16T06:34:33;5.63;;;5.23;;
33206;SDS011;19565;46.602;11.534;2024-02-16T06:37:02;5.07;;;4.77;;
33206;SDS011;19565;46.602;11.534;2024-02-16T06:39:31;1.33;;;1.33;;
33206;SDS011;19565;46.602;11.534;2024-02-16T06:42:01;1.20;;;1.20;;
33206;SDS011;19565;46.602;11.534;2024-02-16T06:44:29;1.67;;;1.57;;
33206;SDS011;19565;46.602;11.534;2024-02-16T06:46:57;2.67;;;2.03;;
33206;SDS011;19565;46.602;11.534;2024-02-16T06:49:26;1.43;;;1.37;;
33206;SDS011;19565;46.602;11.534;2024-02-16T06:51:54;2.53;;;2.33;;
33206;SDS011;19565;46.602;11.534;2024-02-16T06:54:22;1.27;;;1.27;;
33206;SDS011;19565;46.602;11.534;2024-02-16T06:56:52;1.93;;;1.83;;
33206;SDS011;19565;46.602;11.534;2024-02-16T06:59:21;2.40;;;1.60;;
33206;SDS011;19565;46.602;11.534;2024-02-16T07:01:50;2.97;;;1.73;;
33206;SDS011;19565;46.602;11.534;2024-02-16T07:04:18;1.10;;;1.10;;
33206;SDS011;19565;46.602;11.534;2024-02-16T07:06:46;1.83;;;1.73;;
33206;SDS011;19565;46.602;11.534;2024-02-16T07:09:15;2.13;;;2.03;;
33206;SDS011;19565;46.602;11.534;2024-02-16T07:11:43;2.63;;;2.23;;
33206;SDS011;19565;46.602;11.534;2024-02-16T07:14:17;2.90;;;2.70;;
33206;SDS011;19565;46.602;11.534;2024-02-16T07:16:47;1.27;;;1.27;;
33206;SDS011;19565;46.602;11.534;2024-02-16T07:19:18;1.50;;;1.40;;
33206;SDS011;19565;46.602;11.534;2024-02-16T07:21:46;1.13;;;1.13;;
33206;SDS011;19565;46.602;11.534;2024-02-16T07:24:15;1.40;;;1.40;;
33206;SDS011;19565;46.602;11.534;2024-02-16T07:26:45;1.30;;;1.20;;
33206;SDS011;19565;46.602;11.534;2024-02-16T07:29:13;1.70;;;1.60;;
33206;SDS011;19565;46.602;11.534;2024-02-16T07:31:43;1.60;;;1.40;;
33206;SDS011;19565;46.602;11.534;2024-02-16T07:34:13;1.63;;;1.53;;
33206;SDS011;19565;46.602;11.534;2024-02-16T07:36:41;1.97;;;1.87;;
33206;SDS011;19565;46.602;11.534;2024-02-16T07:39:10;5.00;;;1.60;;
33206;SDS011;19565;46.602;11.534;2024-02-16T07:41:39;2.13;;;2.03;;
33206;SDS011;19565;46.602;11.534;2024-02-16T07:44:07;1.00;;;1.00;;
33206;SDS011;19565;46.602;11.534;2024-02-16T07:46:39;1.13;;;1.13;;
33206;SDS011;19565;46.602;11.534;2024-02-16T07:49:08;1.60;;;1.50;;
33206;SDS011;19565;46.602;11.534;2024-02-16T07:51:39;1.87;;;1.70;;
33206;SDS011;19565;46.602;11.534;2024-02-16T07:54:08;0.90;;;0.90;;
33206;SDS011;19565;46.602;11.534;2024-02-16T07:56:36;1.00;;;1.00;;
33206;SDS011;19565;46.602;11.534;2024-02-16T07:59:04;0.97;;;0.97;;
33206;SDS011;19565;46.602;11.534;2024-02-16T08:01:33;1.70;;;1.53;;
33206;SDS011;19565;46.602;11.534;2024-02-16T08:04:01;1.83;;;1.57;;
33206;SDS011;19565;46.602;11.534;2024-02-16T08:06:32;1.53;;;1.47;;
33206;SDS011;19565;46.602;11.534;2024-02-16T08:09:05;1.80;;;1.70;;
33206;SDS011;19565;46.602;11.534;2024-02-16T08:11:34;1.10;;;1.10;;
33206;SDS011;19565;46.602;11.534;2024-02-16T08:14:02;2.60;;;2.50;;
33206;SDS011;19565;46.602;11.534;2024-02-16T08:16:33;4.37;;;4.07;;
33206;SDS011;19565;46.602;11.534;2024-02-16T08:19:10;3.80;;;3.60;;
33206;SDS011;19565;46.602;11.534;2024-02-16T08:21:40;3.17;;;3.03;;
33206;SDS011;19565;46.602;11.534;2024-02-16T08:24:10;3.90;;;3.70;;
33206;SDS011;19565;46.602;11.534;2024-02-16T08:26:39;3.60;;;3.40;;
33206;SDS011;19565;46.602;11.534;2024-02-16T08:29:07;3.60;;;3.40;;
33206;SDS011;19565;46.602;11.534;2024-02-16T08:31:36;5.30;;;4.33;;
33206;SDS011;19565;46.602;11.534;2024-02-16T08:34:04;5.40;;;5.10;;
33206;SDS011;19565;46.602;11.534;2024-02-16T08:36:34;4.07;;;3.87;;
33206;SDS011;19565;46.602;11.534;2024-02-16T08:39:02;5.00;;;4.70;;
33206;SDS011;19565;46.602;11.534;2024-02-16T08:41:32;5.73;;;5.33;;
33206;SDS011;19565;46.602;11.534;2024-02-16T08:44:02;5.00;;;4.70;;
33206;SDS011;19565;46.602;11.534;2024-02-16T08:46:32;5.93;;;5.53;;
33206;SDS011;19565;46.602;11.534;2024-02-16T08:49:01;6.77;;;6.37;;
33206;SDS011;19565;46.602;11.534;2024-02-16T08:51:29;5.87;;;5.47;;
33206;SDS011;19565;46.602;11.534;2024-02-16T08:53:59;6.70;;;6.30;;
33206;SDS011;19565;46.602;11.534;2024-02-16T08:56:28;5.93;;;5.60;;
33206;SDS011;19565;46.602;11.534;2024-02-16T08:58:57;7.03;;;6.50;;
33206;SDS011;19565;46.602;11.534;2024-02-16T09:01:32;6.97;;;6.47;;
33206;SDS011;19565;46.602;11.534;2024-02-16T09:04:01;6.67;;;6.27;;
33206;SDS011;19565;46.602;11.534;2024-02-16T09:06:30;7.93;;;7.43;;
33206;SDS011;19565;46.602;11.534;2024-02-16T09:08:58;8.43;;;7.93;;
33206;SDS011;19565;46.602;11.534;2024-02-16T09:11:26;6.20;;;5.80;;
33206;SDS011;19565;46.602;11.534;2024-02-16T09:13:55;7.47;;;7.07;;
33206;SDS011;19565;46.602;11.534;2024-02-16T09:16:25;8.10;;;7.50;;
33206;SDS011;19565;46.602;11.534;2024-02-16T09:18:53;9.70;;;9.10;;
33206;SDS011;19565;46.602;11.534;2024-02-16T09:21:22;8.53;;;8.03;;
33206;SDS011;19565;46.602;11.534;2024-02-16T09:23:53;10.23;;;9.63;;
33206;SDS011;19565;46.602;11.534;2024-02-16T09:26:24;8.37;;;7.87;;
33206;SDS011;19565;46.602;11.534;2024-02-16T09:28:56;9.20;;;8.67;;
33206;SDS011;19565;46.602;11.534;2024-02-16T09:31:26;7.97;;;7.47;;
33206;SDS011;19565;46.602;11.534;2024-02-16T09:33:54;7.77;;;7.27;;
33206;SDS011;19565;46.602;11.534;2024-02-16T09:36:23;7.73;;;7.30;;
33206;SDS011;19565;46.602;11.534;2024-02-16T09:38:51;7.13;;;6.73;;
33206;SDS011;19565;46.602;11.534;2024-02-16T09:41:20;8.30;;;7.80;;
33206;SDS011;19565;46.602;11.534;2024-02-16T09:43:50;8.70;;;8.10;;
33206;SDS011;19565;46.602;11.534;2024-02-16T09:46:21;9.27;;;8.77;;
33206;SDS011;19565;46.602;11.534;2024-02-16T09:48:52;8.27;;;7.77;;
33206;SDS011;19565;46.602;11.534;2024-02-16T09:51:22;9.10;;;8.60;;
33206;SDS011;19565;46.602;11.534;2024-02-16T09:53:50;10.83;;;10.23;;
33206;SDS011;19565;46.602;11.534;2024-02-16T09:56:26;9.50;;;9.00;;
33206;SDS011;19565;46.602;11.534;2024-02-16T09:58:57;9.90;;;9.40;;
33206;SDS011;19565;46.602;11.534;2024-02-16T10:01:25;9.63;;;9.13;;
33206;SDS011;19565;46.602;11.534;2024-02-16T10:03:59;11.20;;;10.47;;
33206;SDS011;19565;46.602;11.534;2024-02-16T10:06:33;9.93;;;9.33;;
33206;SDS011;19565;46.602;11.534;2024-02-16T10:09:21;10.77;;;10.17;;
33206;SDS011;19565;46.602;11.534;2024-02-16T10:11:50;11.77;;;11.07;;
33206;SDS011;19565;46.602;11.534;2024-02-16T10:14:19;11.33;;;10.73;;
33206;SDS011;19565;46.602;11.534;2024-02-16T10:16:47;12.23;;;11.63;;
33206;SDS011;19565;46.602;11.534;2024-02-16T10:19:27;12.30;;;11.70;;
33206;SDS011;19565;46.602;11.534;2024-02-16T10:22:07;13.37;;;12.67;;
33206;SDS011;19565;46.602;11.534;2024-02-16T10:24:36;14.53;;;13.83;;
33206;SDS011;19565;46.602;11.534;2024-02-16T10:27:06;15.37;;;14.67;;
33206;SDS011;19565;46.602;11.534;2024-02-16T10:29:42;17.43;;;16.60;;
33206;SDS011;19565;46.602;11.534;2024-02-16T10:32:11;17.20;;;16.40;;
33206;SDS011;19565;46.602;11.534;2024-02-16T10:34:45;17.67;;;16.87;;
33206;SDS011;19565;46.602;11.534;2024-02-16T10:37:16;19.77;;;18.87;;
33206;SDS011;19565;46.602;11.534;2024-02-16T10:39:44;19.67;;;18.77;;
33206;SDS011;19565;46.602;11.534;2024-02-16T10:42:14;20.80;;;19.90;;
33206;SDS011;19565;46.602;11.534;2024-02-16T10:44:46;20.83;;;19.93;;
33206;SDS011;19565;46.602;11.534;2024-02-16T10:47:15;21.30;;;20.30;;
33206;SDS011;19565;46.602;11.534;2024-02-16T10:49:45;20.37;;;19.47;;
33206;SDS011;19565;46.602;11.534;2024-02-16T10:52:14;20.07;;;19.17;;
33206;SDS011;19565;46.602;11.534;2024-02-16T10:54:43;22.43;;;21.43;;
33206;SDS011;19565;46.602;11.534;2024-02-16T10:57:11;23.60;;;22.43;;
33206;SDS011;19565;46.602;11.534;2024-02-16T10:59:41;22.17;;;21.17;;
33206;SDS011;19565;46.602;11.534;2024-02-16T11:02:12;11.67;;;11.07;;
33206;SDS011;19565;46.602;11.534;2024-02-16T11:04:44;11.33;;;10.73;;
33206;SDS011;19565;46.602;11.534;2024-02-16T11:07:17;12.33;;;11.63;;
33206;SDS011;19565;46.602;11.534;2024-02-16T11:09:46;10.33;;;9.73;;
33206;SDS011;19565;46.602;11.534;2024-02-16T11:12:15;10.60;;;10.00;;
33206;SDS011;19565;46.602;11.534;2024-02-16T11:14:44;11.20;;;10.60;;
33206;SDS011;19565;46.602;11.534;2024-02-16T11:17:14;9.57;;;9.07;;
33206;SDS011;19565;46.602;11.534;2024-02-16T11:19:43;10.70;;;10.10;;
33206;SDS011;19565;46.602;11.534;2024-02-16T11:22:16;9.73;;;9.23;;
33206;SDS011;19565;46.602;11.534;2024-02-16T11:24:47;11.23;;;10.53;;
33206;SDS011;19565;46.602;11.534;2024-02-16T11:27:17;9.50;;;9.00;;
33206;SDS011;19565;46.602;11.534;2024-02-16T11:29:48;9.80;;;9.30;;
33206;SDS011;19565;46.602;11.534;2024-02-16T11:32:18;8.77;;;8.27;;
33206;SDS011;19565;46.602;11.534;2024-02-16T11:34:46;9.50;;;9.00;;
33206;SDS011;19565;46.602;11.534;2024-02-16T11:37:16;9.20;;;8.70;;
33206;SDS011;19565;46.602;11.534;2024-02-16T11:39:45;9.13;;;8.63;;
33206;SDS011;19565;46.602;11.534;2024-02-16T11:42:18;11.57;;;10.77;;
33206;SDS011;19565;46.602;11.534;2024-02-16T11:44:51;10.17;;;9.57;;
33206;SDS011;19565;46.602;11.534;2024-02-16T11:47:22;10.10;;;9.50;;
33206;SDS011;19565;46.602;11.534;2024-02-16T11:50:02;9.97;;;9.37;;
33206;SDS011;19565;46.602;11.534;2024-02-16T11:52:33;10.33;;;9.73;;
33206;SDS011;19565;46.602;11.534;2024-02-16T11:55:02;9.10;;;8.60;;
33206;SDS011;19565;46.602;11.534;2024-02-16T11:57:34;9.77;;;9.27;;
33206;SDS011;19565;46.602;11.534;2024-02-16T12:00:03;9.63;;;9.07;;
33206;SDS011;19565;46.602;11.534;2024-02-16T12:02:37;10.10;;;9.50;;
33206;SDS011;19565;46.602;11.534;2024-02-16T12:05:05;10.30;;;9.50;;
33206;SDS011;19565;46.602;11.534;2024-02-16T12:07:37;10.50;;;9.90;;
33206;SDS011;19565;46.602;11.534;2024-02-16T12:10:08;9.60;;;9.10;;
33206;SDS011;19565;46.602;11.534;2024-02-16T12:12:37;11.33;;;10.73;;
33206;SDS011;19565;46.602;11.534;2024-02-16T12:15:05;13.43;;;12.73;;
33206;SDS011;19565;46.602;11.534;2024-02-16T12:17:34;8.10;;;7.60;;
33206;SDS011;19565;46.602;11.534;2024-02-16T12:20:10;8.10;;;7.60;;
33206;SDS011;19565;46.602;11.534;2024-02-16T12:22:41;8.90;;;8.40;;
33206;SDS011;19565;46.602;11.534;2024-02-16T12:25:09;10.30;;;9.70;;
33206;SDS011;19565;46.602;11.534;2024-02-16T12:27:38;9.97;;;9.47;;
33206;SDS011;19565;46.602;11.534;2024-02-16T12:30:07;9.60;;;9.10;;
33206;SDS011;19565;46.602;11.534;2024-02-16T12:32:37;10.13;;;9.53;;
33206;SDS011;19565;46.602;11.534;2024-02-16T12:35:06;10.60;;;10.00;;
33206;SDS011;19565;46.602;11.534;2024-02-16T12:37:35;10.97;;;10.37;;
33206;SDS011;19565;46.602;11.534;2024-02-16T12:40:06;11.33;;;10.73;;
33206;SDS011;19565;46.602;11.534;2024-02-16T12:42:36;11.45;;;10.85;;
33206;SDS011;19565;46.602;11.534;2024-02-16T12:45:05;11.13;;;10.53;;
33206;SDS011;19565;46.602;11.534;2024-02-16T12:47:34;9.43;;;8.93;;
33206;SDS011;19565;46.602;11.534;2024-02-16T12:50:02;9.87;;;9.27;;
33206;SDS011;19565;46.602;11.534;2024-02-16T12:52:31;8.80;;;8.30;;
33206;SDS011;19565;46.602;11.534;2024-02-16T12:55:10;9.30;;;8.80;;
33206;SDS011;19565;46.602;11.534;2024-02-16T12:57:38;9.60;;;9.10;;
33206;SDS011;19565;46.602;11.534;2024-02-16T13:00:07;9.67;;;9.10;;
33206;SDS011;19565;46.602;11.534;2024-02-16T13:02:35;8.57;;;8.07;;
33206;SDS011;19565;46.602;11.534;2024-02-16T13:05:04;8.60;;;8.10;;
33206;SDS011;19565;46.602;11.534;2024-02-16T13:07:32;9.73;;;9.13;;
33206;SDS011;19565;46.602;11.534;2024-02-16T13:10:01;9.37;;;8.87;;
33206;SDS011;19565;46.602;11.534;2024-02-16T13:12:31;8.10;;;7.60;;
33206;SDS011;19565;46.602;11.534;2024-02-16T13:14:59;9.63;;;9.03;;
33206;SDS011;19565;46.602;11.534;2024-02-16T13:17:44;9.23;;;8.73;;
33206;SDS011;19565;46.602;11.534;2024-02-16T13:20:12;9.20;;;8.70;;
33206;SDS011;19565;46.602;11.534;2024-02-16T13:22:41;8.60;;;8.10;;
33206;SDS011;19565;46.602;11.534;2024-02-16T13:25:09;8.40;;;7.90;;
33206;SDS011;19565;46.602;11.534;2024-02-16T13:27:39;8.50;;;8.00;;
33206;SDS011;19565;46.602;11.534;2024-02-16T13:30:07;8.47;;;7.97;;
33206;SDS011;19565;46.602;11.534;2024-02-16T13:32:36;9.13;;;8.63;;
33206;SDS011;19565;46.602;11.534;2024-02-16T13:35:07;8.43;;;7.93;;
33206;SDS011;19565;46.602;11.534;2024-02-16T13:37:35;8.85;;;8.35;;
33206;SDS011;19565;46.602;11.534;2024-02-16T13:40:04;9.02;;;8.52;;
33206;SDS011;19565;46.602;11.534;2024-02-16T13:42:37;9.35;;;8.85;;
33206;SDS011;19565;46.602;11.534;2024-02-16T13:45:07;8.82;;;8.32;;
33206;SDS011;19565;46.602;11.534;2024-02-16T13:47:37;8.00;;;7.50;;
33206;SDS011;19565;46.602;11.534;2024-02-16T13:50:06;10.20;;;9.60;;
33206;SDS011;19565;46.602;11.534;2024-02-16T13:52:35;10.10;;;9.50;;
33206;SDS011;19565;46.602;11.534;2024-02-16T13:55:04;8.93;;;8.38;;
33206;SDS011;19565;46.602;11.534;2024-02-16T13:57:33;9.43;;;8.82;;
33206;SDS011;19565;46.602;11.534;2024-02-16T14:00:04;9.98;;;9.48;;
33206;SDS011;19565;46.602;11.534;2024-02-16T14:02:33;11.07;;;10.40;;
33206;SDS011;19565;46.602;11.534;2024-02-16T14:05:01;8.25;;;7.75;;
33206;SDS011;19565;46.602;11.534;2024-02-16T14:07:29;8.82;;;8.32;;
33206;SDS011;19565;46.602;11.534;2024-02-16T14:10:08;10.60;;;10.00;;
33206;SDS011;19565;46.602;11.534;2024-02-16T14:12:37;9.50;;;9.00;;
33206;SDS011;19565;46.602;11.534;2024-02-16T14:15:07;10.30;;;9.60;;
33206;SDS011;19565;46.602;11.534;2024-02-16T14:17:42;9.10;;;8.50;;
33206;SDS011;19565;46.602;11.534;2024-02-16T14:20:10;9.30;;;8.80;;
33206;SDS011;19565;46.602;11.534;2024-02-16T14:22:39;9.13;;;8.63;;
33206;SDS011;19565;46.602;11.534;2024-02-16T14:25:07;8.55;;;8.05;;
33206;SDS011;19565;46.602;11.534;2024-02-16T14:27:40;9.07;;;8.57;;
33206;SDS011;19565;46.602;11.534;2024-02-16T14:30:10;10.05;;;9.48;;
33206;SDS011;19565;46.602;11.534;2024-02-16T14:32:39;9.55;;;9.05;;
33206;SDS011;19565;46.602;11.534;2024-02-16T14:35:08;9.50;;;9.00;;
33206;SDS011;19565;46.602;11.534;2024-02-16T14:37:37;10.00;;;9.40;;
33206;SDS011;19565;46.602;11.534;2024-02-16T14:40:08;8.98;;;8.48;;
33206;SDS011;19565;46.602;11.534;2024-02-16T14:42:38;9.30;;;8.80;;
33206;SDS011;19565;46.602;11.534;2024-02-16T14:45:07;9.07;;;8.57;;